Time;durP1;ratioP1;P1;durP2;ratioP2;P2;SDS_P1;SDS_P2;PMS_P1;PMS_P2;Temp;Humidity;BMP_temperature;BMP_pressure;BME280_temperature;BME280_humidity;BME280_pressure;Samples;Min_cycle;Max_cycle;Signal;HPM_P1;HPM_P2
2023/03/18 00:02:01;;;;;;;6.73;2.27;;;11.50;90.00;;;;;;4944464;28;20475;-73
2023/03/18 00:04:26;;;;;;;6.45;2.80;;;11.50;89.30;;;;;;4987886;28;20325;-73
2023/03/18 00:06:52;;;;;;;6.28;3.05;;;11.60;89.00;;;;;;4980922;28;20053;-73
2023/03/18 00:09:18;;;;;;;7.03;3.00;;;11.60;88.80;;;;;;4974802;28;20084;-73
2023/03/18 00:11:44;;;;;;;7.28;2.53;;;11.60;87.90;;;;;;4986684;28;20046;-73
2023/03/18 00:14:10;;;;;;;6.43;3.08;;;11.70;87.20;;;;;;4967835;28;20074;-73
2023/03/18 00:16:38;;;;;;;5.32;3.00;;;11.70;87.20;;;;;;4958185;28;20498;-73
2023/03/18 00:19:05;;;;;;;7.03;3.33;;;11.80;87.10;;;;;;4948247;28;20043;-74
2023/03/18 00:21:31;;;;;;;5.72;3.13;;;11.80;87.10;;;;;;4986067;28;20042;-73
2023/03/18 00:23:57;;;;;;;7.03;2.65;;;11.80;88.00;;;;;;4962802;28;20053;-73
2023/03/18 00:26:27;;;;;;;6.68;2.78;;;11.70;89.90;;;;;;4955778;28;20050;-74
2023/03/18 00:28:56;;;;;;;7.13;3.00;;;11.70;89.10;;;;;;4969005;28;20648;-74
2023/03/18 00:31:22;;;;;;;5.55;2.90;;;11.80;87.90;;;;;;4953747;28;20050;-73
2023/03/18 00:33:49;;;;;;;4.93;2.50;;;11.70;87.70;;;;;;4968880;28;20169;-73
2023/03/18 00:36:15;;;;;;;5.65;2.70;;;11.80;87.10;;;;;;4966743;28;20459;-73
2023/03/18 00:38:42;;;;;;;5.85;3.03;;;11.70;87.20;;;;;;4966539;28;20043;-73
2023/03/18 00:41:11;;;;;;;7.43;3.10;;;11.70;87.60;;;;;;4954373;28;20061;-73
2023/03/18 00:43:45;;;;;;;5.53;2.55;;;11.60;88.00;;;;;;4970004;28;20047;-73
2023/03/18 00:46:13;;;;;;;8.75;3.08;;;11.60;88.60;;;;;;4981374;28;20043;-73
2023/03/18 00:48:41;;;;;;;18.85;8.13;;;11.60;88.30;;;;;;4985293;28;20074;-73
2023/03/18 00:51:07;;;;;;;13.43;5.90;;;11.70;88.20;;;;;;4969630;28;20963;-74
2023/03/18 00:53:33;;;;;;;9.27;4.13;;;11.70;87.60;;;;;;4967391;28;20139;-74
2023/03/18 00:55:59;;;;;;;6.22;2.90;;;11.70;87.50;;;;;;4973658;28;20045;-73
2023/03/18 00:58:24;;;;;;;5.43;2.20;;;11.80;86.50;;;;;;4964348;28;20042;-73
2023/03/18 01:00:50;;;;;;;7.15;2.40;;;11.90;86.00;;;;;;4985584;28;20527;-73
2023/03/18 01:03:16;;;;;;;6.15;2.20;;;11.90;86.10;;;;;;4986368;28;20041;-74
2023/03/18 01:05:42;;;;;;;4.65;2.10;;;11.90;85.80;;;;;;4979645;28;20073;-73
2023/03/18 01:08:09;;;;;;;6.03;2.28;;;11.90;86.00;;;;;;4989372;28;20050;-74
2023/03/18 01:10:35;;;;;;;5.05;2.22;;;11.90;85.20;;;;;;4971023;28;20479;-74
2023/03/18 01:13:01;;;;;;;3.17;1.60;;;12.00;84.30;;;;;;4985469;28;20122;-73
2023/03/18 01:15:27;;;;;;;4.97;2.30;;;12.10;83.70;;;;;;4960443;28;20104;-74
2023/03/18 01:17:55;;;;;;;4.40;2.13;;;12.30;82.50;;;;;;4980029;28;20406;-74
2023/03/18 01:20:22;;;;;;;4.90;1.98;;;12.30;82.40;;;;;;4947194;28;20045;-73
2023/03/18 01:22:49;;;;;;;3.55;2.05;;;12.30;82.10;;;;;;4963956;28;20105;-73
2023/03/18 01:25:15;;;;;;;5.60;2.33;;;12.30;81.80;;;;;;4985412;28;20046;-74
2023/03/18 01:27:41;;;;;;;6.45;2.08;;;12.40;81.50;;;;;;4947214;28;20051;-74
2023/03/18 01:30:08;;;;;;;5.65;2.10;;;12.40;81.70;;;;;;4986321;28;20054;-73
2023/03/18 01:32:34;;;;;;;4.70;1.77;;;12.40;81.40;;;;;;4956342;28;20076;-73
2023/03/18 01:35:00;;;;;;;4.85;1.90;;;12.40;81.20;;;;;;4964391;28;20522;-73
2023/03/18 01:37:27;;;;;;;4.93;1.77;;;12.40;81.20;;;;;;4964955;28;20043;-72
2023/03/18 01:39:54;;;;;;;7.23;2.87;;;12.40;81.00;;;;;;4963854;28;20073;-73
2023/03/18 01:42:21;;;;;;;7.47;2.03;;;12.30;81.60;;;;;;4974407;28;20049;-73
2023/03/18 01:44:48;;;;;;;6.53;1.90;;;12.30;81.60;;;;;;4979933;28;20061;-73
2023/03/18 01:47:16;;;;;;;6.47;2.20;;;12.30;81.30;;;;;;4969168;28;20062;-73
2023/03/18 01:49:47;;;;;;;9.27;4.68;;;12.30;81.30;;;;;;4939662;28;20050;-73
2023/03/18 01:52:18;;;;;;;8.70;2.33;;;12.30;81.40;;;;;;4982115;28;20541;-73
2023/03/18 01:54:51;;;;;;;3.40;1.63;;;12.30;81.60;;;;;;4982975;28;20046;-73
2023/03/18 01:57:17;;;;;;;4.80;1.75;;;12.30;81.60;;;;;;4954015;28;20050;-73
2023/03/18 01:59:44;;;;;;;3.53;1.77;;;12.30;81.50;;;;;;4952569;28;20046;-73
2023/03/18 02:02:11;;;;;;;7.90;2.20;;;12.30;81.50;;;;;;4984386;28;20042;-72
2023/03/18 02:04:40;;;;;;;4.68;1.92;;;12.30;81.60;;;;;;4980991;28;20050;-72
2023/03/18 02:07:06;;;;;;;;;;;12.30;81.80;;;;;;4991090;28;20046;-73
2023/03/18 02:09:32;;;;;;;3.67;1.63;;;12.20;82.00;;;;;;4979790;28;20529;-72
2023/03/18 02:11:58;;;;;;;6.50;2.00;;;12.30;82.20;;;;;;4930952;28;20050;-72
2023/03/18 02:14:25;;;;;;;6.18;2.10;;;12.20;82.40;;;;;;4943063;28;20061;-73
2023/03/18 02:17:02;;;;;;;3.40;1.67;;;12.20;82.50;;;;;;4958025;28;20042;-73
2023/03/18 02:19:46;;;;;;;6.05;1.75;;;12.30;82.50;;;;;;4954821;28;20050;-73
2023/03/18 02:22:31;;;;;;;7.43;2.60;;;12.30;82.60;;;;;;4976416;28;20050;-73
2023/03/18 02:25:16;;;;;;;6.07;1.90;;;12.30;82.60;;;;;;4964583;28;20054;-73
2023/03/18 02:27:53;;;;;;;7.28;1.52;;;12.30;82.80;;;;;;4979346;28;20046;-73
2023/03/18 02:30:22;;;;;;;7.75;2.10;;;12.30;82.70;;;;;;4949165;28;20133;-73
2023/03/18 02:32:49;;;;;;;5.40;1.77;;;12.30;82.80;;;;;;4958189;28;20077;-73
2023/03/18 02:35:15;;;;;;;5.22;1.77;;;12.30;83.20;;;;;;4973874;28;20081;-73
2023/03/18 02:37:41;;;;;;;7.93;2.10;;;12.30;83.50;;;;;;4984794;28;20090;-73
2023/03/18 02:40:26;;;;;;;4.13;1.80;;;12.30;83.70;;;;;;4982300;28;20184;-73
2023/03/18 02:42:52;;;;;;;9.57;1.98;;;12.30;83.90;;;;;;4973142;28;20055;-73
2023/03/18 02:45:37;;;;;;;4.70;1.73;;;12.30;83.90;;;;;;4965899;28;20815;-73
2023/03/18 02:48:03;;;;;;;6.55;1.70;;;12.30;84.10;;;;;;4977132;28;20144;-73
2023/03/18 02:50:28;;;;;;;6.65;2.00;;;12.30;84.40;;;;;;4961816;28;20478;-73
2023/03/18 02:52:54;;;;;;;5.43;2.30;;;12.30;84.60;;;;;;4975009;28;20043;-73
2023/03/18 02:55:20;;;;;;;8.00;2.00;;;12.30;84.60;;;;;;4971948;28;20042;-73
2023/03/18 02:57:46;;;;;;;3.88;2.00;;;12.30;84.90;;;;;;4944827;28;20554;-73
2023/03/18 03:00:13;;;;;;;5.80;1.90;;;12.30;85.00;;;;;;4985156;28;20034;-73
2023/03/18 03:02:39;;;;;;;6.40;1.80;;;12.30;85.20;;;;;;4978998;28;20042;-73
2023/03/18 03:05:05;;;;;;;7.53;2.15;;;12.30;85.10;;;;;;4990050;28;20053;-73
2023/03/18 03:07:30;;;;;;;4.65;1.85;;;12.30;85.40;;;;;;4981838;28;20468;-73
2023/03/18 03:09:56;;;;;;;3.65;1.85;;;12.40;85.20;;;;;;4940174;28;20065;-73
2023/03/18 03:12:22;;;;;;;9.00;2.20;;;12.40;85.20;;;;;;4959034;28;20054;-73
2023/03/18 03:14:48;;;;;;;6.68;2.30;;;12.40;85.10;;;;;;4981337;28;20100;-73
2023/03/18 03:17:14;;;;;;;6.85;2.30;;;12.40;85.40;;;;;;4976759;28;20428;-73
2023/03/18 03:19:39;;;;;;;5.85;1.88;;;12.30;86.00;;;;;;4967611;28;20130;-73
2023/03/18 03:22:05;;;;;;;5.95;2.10;;;12.30;86.10;;;;;;4959925;28;20149;-73
2023/03/18 03:24:31;;;;;;;7.10;1.90;;;12.30;86.40;;;;;;4983243;28;20061;-73
2023/03/18 03:26:57;;;;;;;7.72;2.17;;;12.30;86.60;;;;;;4960296;28;20058;-72
2023/03/18 03:29:23;;;;;;;4.97;2.53;;;12.30;87.00;;;;;;4968144;28;20046;-73
2023/03/18 03:31:49;;;;;;;4.53;2.30;;;12.30;87.30;;;;;;4982101;28;20078;-73
2023/03/18 03:34:14;;;;;;;5.40;2.17;;;12.20;88.00;;;;;;4965525;28;20129;-73
2023/03/18 03:36:40;;;;;;;7.40;2.40;;;12.10;88.30;;;;;;4931896;28;20086;-73
2023/03/18 03:39:06;;;;;;;7.57;2.92;;;12.10;88.90;;;;;;4990575;28;20050;-72
2023/03/18 03:41:32;;;;;;;5.22;3.15;;;12.10;89.40;;;;;;4984941;28;20060;-73
2023/03/18 03:43:58;;;;;;;11.00;3.70;;;12.10;89.60;;;;;;4968097;28;20069;-73
2023/03/18 03:46:24;;;;;;;6.90;3.20;;;12.00;89.70;;;;;;4971273;28;20050;-73
2023/03/18 03:48:50;;;;;;;8.10;2.72;;;12.00;90.00;;;;;;4974542;28;20042;-73
2023/03/18 03:51:15;;;;;;;6.28;2.80;;;12.00;90.00;;;;;;4980600;28;20050;-72
2023/03/18 03:53:42;;;;;;;9.52;2.83;;;11.90;89.90;;;;;;4973885;28;20043;-72
2023/03/18 03:56:08;;;;;;;7.35;2.60;;;12.00;89.80;;;;;;4943840;28;20058;-73
2023/03/18 03:58:34;;;;;;;10.13;2.40;;;12.00;90.00;;;;;;4976937;28;20046;-72
2023/03/18 04:01:01;;;;;;;6.22;2.67;;;12.00;90.00;;;;;;4940993;28;20825;-72
2023/03/18 04:03:27;;;;;;;8.25;2.55;;;12.00;90.10;;;;;;4932967;28;20388;-73
2023/03/18 04:05:55;;;;;;;11.18;2.72;;;12.00;90.40;;;;;;4964361;28;20463;-72
2023/03/18 04:08:21;;;;;;;8.20;2.78;;;11.90;90.70;;;;;;4979775;28;20051;-72
2023/03/18 04:10:47;;;;;;;7.63;2.70;;;11.90;91.00;;;;;;4970268;28;20140;-73
2023/03/18 04:13:13;;;;;;;7.32;2.67;;;12.00;91.30;;;;;;4948678;28;20057;-72
2023/03/18 04:15:39;;;;;;;6.60;2.75;;;12.00;91.70;;;;;;4962529;28;20042;-73
2023/03/18 04:18:05;;;;;;;6.03;2.40;;;12.00;91.90;;;;;;4992487;28;20042;-73
2023/03/18 04:20:33;;;;;;;8.10;3.03;;;12.00;92.30;;;;;;4987617;28;20042;-73
2023/03/18 04:22:59;;;;;;;7.63;2.90;;;12.00;92.70;;;;;;4987278;28;20074;-73
2023/03/18 04:25:25;;;;;;;8.95;2.95;;;11.90;93.20;;;;;;4974744;28;20057;-72
2023/03/18 04:27:51;;;;;;;9.20;3.05;;;11.90;93.70;;;;;;4987874;28;20042;-73
2023/03/18 04:30:19;;;;;;;6.45;2.72;;;11.80;94.40;;;;;;4968034;28;20158;-73
2023/03/18 04:32:45;;;;;;;7.68;2.95;;;11.80;95.70;;;;;;4991210;28;20050;-73
2023/03/18 04:35:11;;;;;;;5.75;2.50;;;11.70;97.40;;;;;;4964665;28;20468;-73
2023/03/18 04:37:37;;;;;;;6.63;2.45;;;11.70;98.60;;;;;;4980819;28;20097;-72
2023/03/18 04:40:06;;;;;;;9.10;2.88;;;11.80;99.10;;;;;;4984495;28;20046;-72
2023/03/18 04:42:32;;;;;;;6.80;2.75;;;11.60;99.70;;;;;;4948177;28;20057;-72
2023/03/18 04:44:58;;;;;;;7.80;2.47;;;11.60;99.90;;;;;;4960565;28;20050;-72
2023/03/18 04:47:24;;;;;;;4.50;2.45;;;11.60;99.90;;;;;;4983135;28;20125;-72
2023/03/18 04:49:50;;;;;;;8.75;2.60;;;11.60;99.90;;;;;;4944345;28;20050;-73
2023/03/18 04:52:16;;;;;;;10.05;3.40;;;11.60;99.90;;;;;;4985500;28;20475;-74
2023/03/18 04:54:42;;;;;;;6.88;2.50;;;11.60;99.90;;;;;;4982500;28;20105;-73
2023/03/18 04:57:08;;;;;;;6.78;3.00;;;11.50;99.90;;;;;;4986375;28;20046;-74
2023/03/18 04:59:34;;;;;;;6.35;2.65;;;11.60;99.90;;;;;;4950823;28;20623;-74
2023/03/18 05:01:59;;;;;;;6.75;3.03;;;11.60;99.90;;;;;;4963526;28;20049;-73
2023/03/18 05:04:26;;;;;;;7.13;2.67;;;11.50;99.90;;;;;;4987880;28;20057;-73
2023/03/18 05:06:52;;;;;;;8.30;3.20;;;11.40;99.90;;;;;;4973345;28;20046;-72
2023/03/18 05:09:18;;;;;;;7.60;2.90;;;11.40;99.90;;;;;;4979641;28;20089;-73
2023/03/18 05:11:44;;;;;;;10.93;3.05;;;11.40;99.90;;;;;;4970153;28;20054;-73
2023/03/18 05:14:10;;;;;;;8.32;3.33;;;11.30;99.90;;;;;;4985918;28;20046;-73
2023/03/18 05:16:35;;;;;;;6.68;2.80;;;11.20;99.90;;;;;;4965331;28;20057;-73
2023/03/18 05:19:02;;;;;;;7.95;2.97;;;11.30;99.90;;;;;;4953611;28;20411;-73
2023/03/18 05:21:28;;;;;;;13.70;3.47;;;11.30;99.90;;;;;;4950189;28;20054;-72
2023/03/18 05:23:53;;;;;;;7.68;3.00;;;11.20;99.90;;;;;;4981309;28;20104;-74
2023/03/18 05:26:19;;;;;;;9.70;3.22;;;11.20;99.90;;;;;;4986813;28;20078;-73
2023/03/18 05:28:45;;;;;;;7.20;3.35;;;11.20;99.90;;;;;;4959555;28;20120;-74
2023/03/18 05:31:11;;;;;;;10.73;3.08;;;11.20;99.90;;;;;;4952442;28;20471;-73
2023/03/18 05:33:37;;;;;;;6.53;3.33;;;11.20;99.90;;;;;;4973516;28;20073;-73
2023/03/18 05:36:03;;;;;;;9.73;3.47;;;11.20;99.90;;;;;;4969334;28;20411;-73
2023/03/18 05:38:29;;;;;;;11.52;4.03;;;11.20;99.90;;;;;;4975756;28;20041;-73
2023/03/18 05:40:55;;;;;;;8.63;3.22;;;11.30;99.90;;;;;;4967593;28;20442;-73
2023/03/18 05:43:20;;;;;;;8.55;3.03;;;11.20;99.90;;;;;;4966211;28;20056;-73
2023/03/18 05:45:47;;;;;;;8.13;3.00;;;11.20;99.90;;;;;;4985506;28;20134;-73
2023/03/18 05:48:13;;;;;;;11.50;3.15;;;11.20;99.90;;;;;;4971367;28;20140;-73
2023/03/18 05:50:41;;;;;;;10.70;3.22;;;11.30;99.90;;;;;;4959817;28;20133;-73
2023/03/18 05:53:07;;;;;;;8.48;3.05;;;11.30;99.90;;;;;;4952868;28;20053;-73
2023/03/18 05:55:34;;;;;;;7.63;3.08;;;11.10;99.90;;;;;;4988130;28;20047;-73
2023/03/18 05:58:01;;;;;;;7.70;3.10;;;11.10;99.90;;;;;;4969024;28;20042;-73
2023/03/18 06:00:28;;;;;;;11.13;3.20;;;11.00;99.90;;;;;;4965468;28;20077;-73
2023/03/18 06:02:55;;;;;;;7.40;3.03;;;11.00;99.90;;;;;;4964939;28;20058;-73
2023/03/18 06:05:21;;;;;;;7.82;3.05;;;11.00;99.90;;;;;;4982837;28;20085;-73
2023/03/18 06:07:48;;;;;;;7.63;2.85;;;11.00;99.90;;;;;;4965873;28;21214;-72
2023/03/18 06:10:13;;;;;;;7.60;3.17;;;11.00;99.90;;;;;;4976517;28;20086;-73
2023/03/18 06:12:40;;;;;;;9.43;3.13;;;10.90;99.90;;;;;;4950801;28;20199;-72
2023/03/18 06:15:07;;;;;;;8.20;3.20;;;10.80;99.90;;;;;;4946155;28;20458;-71
2023/03/18 06:17:33;;;;;;;6.93;3.10;;;10.70;99.90;;;;;;4969744;28;20072;-73
2023/03/18 06:19:59;;;;;;;7.03;3.15;;;10.80;99.90;;;;;;4967441;28;20042;-73
2023/03/18 06:22:25;;;;;;;8.43;3.08;;;10.80;99.90;;;;;;4958423;28;20617;-72
2023/03/18 06:24:51;;;;;;;9.25;3.33;;;10.80;99.90;;;;;;4969845;28;20069;-72
2023/03/18 06:27:17;;;;;;;8.15;3.08;;;10.80;99.90;;;;;;4974322;28;20056;-73
2023/03/18 06:29:43;;;;;;;10.57;3.45;;;10.80;99.90;;;;;;4968789;28;20371;-74
2023/03/18 06:32:08;;;;;;;8.15;3.33;;;10.90;99.90;;;;;;4948804;28;20426;-73
2023/03/18 06:34:35;;;;;;;9.73;3.22;;;10.90;99.90;;;;;;4966131;28;20085;-73
2023/03/18 06:37:01;;;;;;;5.85;3.10;;;10.90;99.90;;;;;;4963411;28;20130;-73
2023/03/18 06:39:27;;;;;;;6.75;3.10;;;10.90;99.90;;;;;;4950639;28;20058;-72
2023/03/18 06:41:53;;;;;;;6.93;2.80;;;11.00;99.90;;;;;;4946217;28;20050;-72
2023/03/18 06:44:20;;;;;;;7.43;3.25;;;11.00;99.90;;;;;;4965495;28;20117;-73
2023/03/18 06:46:46;;;;;;;9.10;2.80;;;11.10;99.90;;;;;;4949489;28;20051;-72
2023/03/18 06:49:14;;;;;;;5.10;2.63;;;11.00;99.90;;;;;;4930868;28;20160;-72
2023/03/18 06:51:41;;;;;;;8.05;3.20;;;10.90;99.90;;;;;;4979608;28;20051;-72
2023/03/18 06:54:08;;;;;;;8.48;2.83;;;10.90;99.90;;;;;;4980972;28;20047;-72
2023/03/18 06:56:36;;;;;;;5.40;2.58;;;11.00;99.90;;;;;;4965110;28;20057;-71
2023/03/18 06:59:02;;;;;;;5.95;3.03;;;11.00;99.90;;;;;;4964515;28;20788;-72
2023/03/18 07:01:29;;;;;;;9.25;2.95;;;11.10;99.90;;;;;;4964171;28;20080;-71
2023/03/18 07:03:57;;;;;;;9.13;3.10;;;11.10;99.90;;;;;;4968946;28;20042;-71
2023/03/18 07:06:23;;;;;;;6.70;3.10;;;11.20;99.90;;;;;;4967533;28;20042;-71
2023/03/18 07:08:49;;;;;;;7.45;2.42;;;11.30;99.90;;;;;;4957089;28;20047;-71
2023/03/18 07:11:15;;;;;;;6.53;2.67;;;11.40;99.90;;;;;;4979438;28;20584;-71
2023/03/18 07:13:41;;;;;;;5.22;2.60;;;11.60;99.90;;;;;;4981221;28;20046;-71
2023/03/18 07:16:07;;;;;;;7.10;2.65;;;11.70;99.90;;;;;;4967490;28;20753;-72
2023/03/18 07:18:32;;;;;;;8.68;2.95;;;11.80;99.90;;;;;;4982707;28;20038;-73
2023/03/18 07:20:58;;;;;;;8.13;2.80;;;11.90;99.90;;;;;;4971268;28;20479;-72
2023/03/18 07:23:24;;;;;;;6.38;2.72;;;11.90;99.90;;;;;;4962585;28;20090;-73
2023/03/18 07:25:50;;;;;;;7.93;2.88;;;12.00;99.90;;;;;;4944196;28;20510;-73
2023/03/18 07:28:16;;;;;;;8.80;2.47;;;12.00;99.90;;;;;;4945657;28;20098;-73
2023/03/18 07:30:41;;;;;;;7.88;2.60;;;12.10;99.90;;;;;;4929733;28;20105;-72
2023/03/18 07:33:07;;;;;;;6.88;2.50;;;12.20;99.90;;;;;;4950278;28;20492;-74
2023/03/18 07:35:33;;;;;;;9.15;2.63;;;12.20;99.90;;;;;;4947448;28;20615;-73
2023/03/18 07:37:59;;;;;;;6.40;2.70;;;12.20;99.90;;;;;;4974520;28;20112;-74
2023/03/18 07:40:25;;;;;;;11.20;3.13;;;12.30;99.90;;;;;;4951224;28;20046;-73
2023/03/18 07:42:51;;;;;;;7.18;3.08;;;12.40;99.90;;;;;;4977467;28;20181;-73
2023/03/18 07:45:16;;;;;;;6.65;3.00;;;12.40;99.90;;;;;;4976432;28;20093;-73
2023/03/18 07:47:42;;;;;;;7.57;3.38;;;12.40;99.90;;;;;;4962271;28;20046;-73
2023/03/18 07:50:09;;;;;;;9.90;4.40;;;12.40;99.90;;;;;;4988611;28;20116;-73
2023/03/18 07:52:36;;;;;;;11.15;4.07;;;12.50;99.90;;;;;;4943997;28;20050;-73
2023/03/18 07:55:03;;;;;;;10.07;4.35;;;12.50;99.90;;;;;;4946742;28;20117;-73
2023/03/18 07:57:28;;;;;;;10.27;4.35;;;12.60;99.90;;;;;;4962973;28;20050;-73
2023/03/18 07:59:55;;;;;;;10.93;4.75;;;12.60;99.90;;;;;;4958737;28;20046;-73
2023/03/18 08:02:20;;;;;;;10.50;4.00;;;12.70;99.90;;;;;;4979207;28;20046;-72
2023/03/18 08:04:46;;;;;;;14.57;5.88;;;12.70;99.90;;;;;;4961001;28;20123;-73
2023/03/18 08:07:12;;;;;;;8.57;4.57;;;12.70;99.90;;;;;;4967255;28;20046;-73
2023/03/18 08:09:38;;;;;;;12.02;5.18;;;12.70;99.90;;;;;;4957236;28;20384;-73
2023/03/18 08:12:05;;;;;;;10.90;3.83;;;12.70;99.90;;;;;;4964320;28;20057;-73
2023/03/18 08:14:31;;;;;;;11.13;4.20;;;12.80;99.90;;;;;;4966699;28;20514;-73
2023/03/18 08:16:57;;;;;;;8.25;4.35;;;13.00;99.90;;;;;;4967690;28;20070;-72
2023/03/18 08:19:22;;;;;;;10.23;3.67;;;13.10;99.90;;;;;;4963637;28;20129;-72
2023/03/18 08:21:48;;;;;;;5.80;2.35;;;13.20;99.90;;;;;;4949950;28;20475;-75
2023/03/18 08:24:14;;;;;;;5.75;2.85;;;13.40;99.90;;;;;;4978168;28;20062;-75
2023/03/18 08:26:40;;;;;;;7.97;2.30;;;13.40;99.90;;;;;;4983693;28;20046;-76
2023/03/18 08:29:05;;;;;;;6.07;2.30;;;13.40;99.90;;;;;;4981566;28;20053;-75
2023/03/18 08:31:31;;;;;;;7.53;2.55;;;13.40;99.90;;;;;;4961221;28;20050;-76
2023/03/18 08:33:58;;;;;;;8.75;2.40;;;13.50;99.90;;;;;;4943045;28;20379;-75
2023/03/18 08:36:24;;;;;;;5.95;2.40;;;13.50;99.90;;;;;;4954570;28;20050;-76
2023/03/18 08:38:49;;;;;;;7.15;2.88;;;13.50;99.90;;;;;;4977940;28;20691;-75
2023/03/18 08:41:15;;;;;;;5.60;2.33;;;13.50;99.90;;;;;;4971779;28;20047;-76
2023/03/18 08:43:42;;;;;;;5.38;2.60;;;13.60;99.90;;;;;;4964713;28;20042;-75
2023/03/18 08:46:08;;;;;;;7.75;2.60;;;13.50;99.90;;;;;;4963134;28;20047;-76
2023/03/18 08:48:34;;;;;;;7.70;3.40;;;13.50;99.90;;;;;;4980962;28;20776;-76
2023/03/18 08:51:03;;;;;;;4.43;2.25;;;13.50;99.90;;;;;;4970881;28;20046;-75
2023/03/18 08:53:29;;;;;;;7.20;2.45;;;13.70;99.90;;;;;;4969827;28;20446;-75
2023/03/18 08:55:55;;;;;;;4.82;2.40;;;13.70;99.90;;;;;;4970161;28;20126;-76
2023/03/18 08:58:21;;;;;;;4.75;2.38;;;13.70;99.90;;;;;;4927625;28;20038;-76
2023/03/18 09:00:46;;;;;;;7.80;2.50;;;13.70;99.90;;;;;;4962057;28;20109;-75
2023/03/18 09:03:12;;;;;;;4.13;2.00;;;13.90;99.90;;;;;;4983301;28;20480;-76
2023/03/18 09:05:39;;;;;;;4.35;1.88;;;14.00;99.90;;;;;;4958083;28;20451;-75
2023/03/18 09:08:05;;;;;;;7.05;2.30;;;14.10;99.90;;;;;;4974077;28;21642;-76
2023/03/18 09:10:32;;;;;;;6.03;2.55;;;14.30;99.90;;;;;;4977297;28;20057;-75
2023/03/18 09:12:59;;;;;;;4.68;2.38;;;14.20;99.90;;;;;;4946512;28;20070;-75
2023/03/18 09:15:26;;;;;;;5.57;2.33;;;14.50;99.90;;;;;;4947098;28;20498;-75
2023/03/18 09:17:52;;;;;;;7.75;2.80;;;14.50;99.90;;;;;;4958857;28;20156;-75
2023/03/18 09:20:18;;;;;;;7.20;2.63;;;14.50;99.90;;;;;;4980088;28;20046;-72
2023/03/18 09:22:44;;;;;;;7.05;2.30;;;14.60;99.90;;;;;;4966332;28;20861;-75
2023/03/18 09:25:10;;;;;;;5.85;2.60;;;14.60;99.90;;;;;;4952626;28;20061;-76
2023/03/18 09:27:37;;;;;;;6.68;2.42;;;14.60;99.90;;;;;;4970580;28;20494;-75
2023/03/18 09:30:04;;;;;;;5.90;2.55;;;14.80;99.90;;;;;;4980496;28;20156;-75
2023/03/18 09:32:29;;;;;;;12.00;4.10;;;15.00;99.90;;;;;;4964352;28;20059;-76
2023/03/18 09:34:58;;;;;;;9.25;3.78;;;14.90;99.90;;;;;;4977071;28;20542;-76
2023/03/18 09:37:24;;;;;;;8.20;2.90;;;14.80;99.90;;;;;;4984917;28;20050;-76
2023/03/18 09:39:50;;;;;;;8.93;3.50;;;14.90;99.90;;;;;;4974922;28;20046;-75
2023/03/18 09:42:35;;;;;;;8.63;3.78;;;14.80;99.90;;;;;;4964754;28;20055;-76
2023/03/18 09:45:05;;;;;;;6.90;4.03;;;14.90;99.90;;;;;;4991163;28;20052;-75
2023/03/18 09:47:56;;;;;;;8.20;4.05;;;15.00;99.90;;;;;;4970107;28;20042;-75
2023/03/18 09:50:36;;;;;;;8.60;4.00;;;15.10;99.90;;;;;;4982157;28;20046;-75
2023/03/18 09:53:37;;;;;;;7.70;3.90;;;15.00;99.90;;;;;;4959891;28;20407;-76
2023/03/18 09:56:02;;;;;;;9.30;4.63;;;14.80;99.90;;;;;;4988317;28;20049;-76
2023/03/18 09:58:52;;;;;;;8.43;4.40;;;14.70;99.90;;;;;;4985879;28;20656;-76
2023/03/18 10:01:18;;;;;;;10.73;5.38;;;14.70;99.90;;;;;;4984704;28;20054;-75
2023/03/18 10:03:50;;;;;;;8.65;4.10;;;14.70;99.90;;;;;;4946123;28;20050;-74
2023/03/18 10:06:21;;;;;;;8.05;4.93;;;14.70;99.90;;;;;;4966107;28;20510;-74
2023/03/18 10:08:57;;;;;;;9.85;4.88;;;14.60;99.90;;;;;;4972571;28;20112;-74
2023/03/18 10:11:38;;;;;;;7.55;4.97;;;14.70;99.90;;;;;;4966290;28;20075;-74
2023/03/18 10:14:39;;;;;;;9.52;5.68;;;14.60;99.90;;;;;;4977721;28;20038;-74
2023/03/18 10:17:04;;;;;;;10.70;5.63;;;14.40;99.90;;;;;;4975261;28;20186;-74
2023/03/18 10:19:31;;;;;;;7.78;5.22;;;14.50;99.90;;;;;;4972833;28;20121;-74
2023/03/18 10:22:08;;;;;;;10.75;5.07;;;14.40;99.90;;;;;;4955964;28;20112;-75
2023/03/18 10:25:29;;;;;;;11.88;6.85;;;14.40;99.90;;;;;;4984384;28;20046;-74
2023/03/18 10:28:03;;;;;;;13.05;7.28;;;14.30;99.90;;;;;;4956820;28;20051;-74
2023/03/18 10:30:42;;;;;;;12.05;5.78;;;14.20;99.90;;;;;;4978305;28;20132;-75
2023/03/18 10:33:43;;;;;;;8.40;5.63;;;14.30;99.90;;;;;;4962402;28;20373;-74
2023/03/18 10:36:21;;;;;;;8.63;5.47;;;14.30;99.90;;;;;;4958104;28;20046;-75
2023/03/18 10:38:50;;;;;;;7.32;4.45;;;14.70;99.90;;;;;;4968926;28;20046;-74
2023/03/18 10:41:20;;;;;;;8.43;4.53;;;14.90;99.90;;;;;;4962887;28;20050;-74
2023/03/18 10:43:46;;;;;;;6.00;4.28;;;15.00;99.90;;;;;;4981848;28;20184;-74
2023/03/18 10:46:14;;;;;;;6.30;4.40;;;15.00;99.90;;;;;;4938640;28;20093;-74
2023/03/18 10:49:05;;;;;;;6.93;4.38;;;15.10;99.90;;;;;;4978761;28;20049;-74
2023/03/18 10:51:49;;;;;;;6.22;3.25;;;15.20;99.90;;;;;;4962590;28;20050;-74
2023/03/18 10:54:35;;;;;;;8.50;3.75;;;15.50;99.90;;;;;;4952573;28;20788;-75
2023/03/18 10:57:01;;;;;;;6.82;3.28;;;15.30;99.90;;;;;;4959241;28;20073;-74
2023/03/18 10:59:27;;;;;;;6.28;3.78;;;15.40;99.90;;;;;;4967119;28;20116;-73
2023/03/18 11:01:59;;;;;;;5.95;2.83;;;15.30;99.90;;;;;;4947960;28;20550;-75
2023/03/18 11:04:24;;;;;;;5.88;2.90;;;15.30;99.90;;;;;;4945239;28;20054;-74
2023/03/18 11:07:01;;;;;;;6.30;3.05;;;15.20;99.90;;;;;;4947247;28;20369;-74
2023/03/18 11:09:32;;;;;;;6.45;3.05;;;15.00;99.90;;;;;;4964826;28;20072;-74
2023/03/18 11:12:04;;;;;;;4.78;2.97;;;14.90;99.90;;;;;;4961109;28;20050;-75
2023/03/18 11:14:31;;;;;;;6.22;2.85;;;14.80;99.90;;;;;;4948290;28;20047;-74
2023/03/18 11:17:04;;;;;;;5.53;2.50;;;14.80;99.90;;;;;;4956235;28;20753;-75
2023/03/18 11:19:46;;;;;;;5.07;3.10;;;14.70;99.90;;;;;;4955862;28;20858;-73
2023/03/18 11:22:24;;;;;;;5.50;2.33;;;14.70;99.90;;;;;;4965423;28;20081;-75
2023/03/18 11:25:00;;;;;;;;;;;14.80;99.90;;;;;;4965687;28;20051;-73
2023/03/18 11:27:36;;;;;;;5.53;3.00;;;15.00;99.90;;;;;;4979232;28;19922;-73
2023/03/18 11:30:10;;;;;;;6.07;2.83;;;15.00;99.90;;;;;;4936953;28;20082;-73
2023/03/18 11:32:36;;;;;;;3.70;2.50;;;14.90;99.90;;;;;;4971532;28;20046;-73
2023/03/18 11:35:04;;;;;;;4.00;2.58;;;14.90;99.90;;;;;;4957638;28;20066;-74
2023/03/18 11:37:31;;;;;;;3.80;2.38;;;14.90;99.90;;;;;;4953723;28;20077;-73
2023/03/18 11:40:25;;;;;;;4.68;2.08;;;14.90;99.90;;;;;;4967625;28;20460;-75
2023/03/18 11:42:58;;;;;;;4.70;2.17;;;15.20;99.90;;;;;;4979123;28;20133;-74
2023/03/18 11:45:45;;;;;;;3.88;2.10;;;15.80;99.90;;;;;;4959373;28;20053;-74
2023/03/18 11:48:35;;;;;;;4.07;2.10;;;16.40;99.90;;;;;;4986650;28;20487;-73
2023/03/18 11:51:21;;;;;;;4.30;2.03;;;16.40;99.20;;;;;;4973727;28;20317;-74
2023/03/18 11:54:09;;;;;;;5.68;2.75;;;16.70;98.70;;;;;;4985838;28;20089;-74
2023/03/18 11:56:52;;;;;;;5.40;1.90;;;16.70;97.00;;;;;;4984275;28;20050;-73
2023/03/18 11:59:25;;;;;;;3.35;2.13;;;16.70;95.90;;;;;;4976208;28;20066;-73
2023/03/18 12:01:57;;;;;;;5.03;1.95;;;16.70;95.80;;;;;;4987793;28;20055;-73
2023/03/18 12:04:51;;;;;;;6.97;3.05;;;17.40;95.60;;;;;;4957783;28;20046;-74
2023/03/18 12:07:39;;;;;;;6.97;3.78;;;17.50;94.80;;;;;;4954842;28;20376;-73
2023/03/18 12:10:33;;;;;;;4.55;2.00;;;17.50;94.40;;;;;;4986942;28;20137;-73
2023/03/18 12:13:13;;;;;;;6.68;1.90;;;17.30;94.10;;;;;;4993253;28;20050;-74
2023/03/18 12:15:53;;;;;;;3.13;1.90;;;17.60;94.00;;;;;;4987488;28;20181;-73
2023/03/18 12:18:25;;;;;;;6.22;1.92;;;17.70;92.20;;;;;;4965798;28;20070;-75
2023/03/18 12:20:52;;;;;;;5.15;1.95;;;17.90;92.10;;;;;;4982654;28;20070;-73
2023/03/18 12:23:46;;;;;;;3.42;1.50;;;18.10;91.50;;;;;;4950884;28;20557;-75
2023/03/18 12:26:22;;;;;;;4.07;1.80;;;18.30;88.80;;;;;;4977425;28;20141;-74
2023/03/18 12:29:22;;;;;;;4.60;1.80;;;18.10;89.50;;;;;;4956014;28;20046;-74
2023/03/18 12:32:24;;;;;;;2.00;1.38;;;18.70;89.50;;;;;;4972540;28;20054;-72
2023/03/18 12:35:15;;;;;;;2.95;1.63;;;18.70;87.30;;;;;;4971848;28;20050;-72
2023/03/18 12:37:41;;;;;;;4.82;2.10;;;18.70;86.90;;;;;;4969287;28;20142;-71
2023/03/18 12:40:20;;;;;;;5.45;1.75;;;18.50;87.80;;;;;;4980471;28;20112;-72
2023/03/18 12:42:49;;;;;;;2.75;1.40;;;18.60;87.90;;;;;;4986842;28;20055;-72
2023/03/18 12:45:18;;;;;;;3.33;1.60;;;18.90;84.20;;;;;;4987612;28;20038;-71
2023/03/18 12:47:53;;;;;;;2.83;1.60;;;18.30;85.20;;;;;;4956728;28;20094;-72
2023/03/18 12:50:24;;;;;;;4.05;1.60;;;18.00;87.30;;;;;;4985270;28;20097;-72
2023/03/18 12:52:55;;;;;;;4.53;1.95;;;18.00;87.20;;;;;;4948269;28;20104;-74
2023/03/18 12:55:32;;;;;;;2.60;1.30;;;18.40;82.70;;;;;;4984623;28;20039;-74
2023/03/18 12:58:02;;;;;;;2.70;1.80;;;18.80;84.10;;;;;;4986283;28;20043;-73